Time;durP1;ratioP1;P1;durP2;ratioP2;P2;SDS_P1;SDS_P2;PMS_P1;PMS_P2;Temp;Humidity;BMP_temperature;BMP_pressure;BME280_temperature;BME280_humidity;BME280_pressure;Samples;Min_cycle;Max_cycle;Signal;HPM_P1;HPM_P2
2023/06/23 00:00:36;;;;;;;8.37;7.67;;;20.60;99.90;;;;;;5032757;28;20877;-45
2023/06/23 00:03:03;;;;;;;9.30;7.83;;;20.60;99.90;;;;;;5032636;28;20444;-45
2023/06/23 00:05:30;;;;;;;7.80;7.10;;;20.60;99.90;;;;;;5032649;28;20434;-46
2023/06/23 00:07:56;;;;;;;8.50;7.70;;;20.60;99.90;;;;;;5032602;28;20533;-46
2023/06/23 00:10:24;;;;;;;8.80;8.00;;;20.60;99.90;;;;;;5032635;28;20463;-46
2023/06/23 00:12:51;;;;;;;9.83;8.27;;;20.60;99.90;;;;;;5032919;28;20481;-46
2023/06/23 00:15:18;;;;;;;11.30;8.40;;;20.60;99.90;;;;;;5033046;28;20820;-45
2023/06/23 00:17:45;;;;;;;9.37;7.77;;;20.60;99.90;;;;;;5033153;28;20443;-45
2023/06/23 00:20:13;;;;;;;8.23;7.50;;;20.60;99.90;;;;;;5032856;28;20456;-47
2023/06/23 00:22:41;;;;;;;8.00;7.20;;;20.60;99.90;;;;;;5032789;28;20513;-45
2023/06/23 00:25:10;;;;;;;7.83;7.13;;;20.70;99.90;;;;;;5032776;28;20432;-45
2023/06/23 00:27:38;;;;;;;9.17;8.20;;;20.70;99.90;;;;;;5033619;28;20500;-46
2023/06/23 00:30:06;;;;;;;7.80;7.10;;;20.70;99.90;;;;;;5032284;28;20437;-46
2023/06/23 00:32:34;;;;;;;7.30;6.60;;;20.80;99.90;;;;;;5032564;28;20462;-45
2023/06/23 00:35:01;;;;;;;8.53;7.50;;;20.80;99.90;;;;;;5031002;28;20457;-45
2023/06/23 00:37:30;;;;;;;8.47;7.53;;;20.80;99.90;;;;;;5032745;28;20572;-45
2023/06/23 00:39:56;;;;;;;8.50;6.93;;;20.70;99.90;;;;;;5031313;28;20474;-46
2023/06/23 00:42:23;;;;;;;7.70;6.90;;;20.60;99.90;;;;;;5033192;28;20963;-46
2023/06/23 00:44:53;;;;;;;7.73;6.77;;;20.50;99.90;;;;;;5037044;28;20507;-47
2023/06/23 00:47:19;;;;;;;7.60;6.83;;;20.60;99.90;;;;;;5036221;28;20858;-45
2023/06/23 00:49:46;;;;;;;7.30;6.60;;;20.60;99.90;;;;;;5036216;28;20477;-46
2023/06/23 00:52:13;;;;;;;8.07;7.10;;;20.60;99.90;;;;;;5035030;28;20551;-45
2023/06/23 00:54:40;;;;;;;8.33;7.50;;;20.60;99.90;;;;;;5036121;28;20436;-44
2023/06/23 00:57:06;;;;;;;11.00;6.90;;;20.60;99.90;;;;;;5035944;28;21004;-45
2023/06/23 00:59:33;;;;;;;9.53;7.83;;;20.60;99.90;;;;;;5034110;28;20461;-46
2023/06/23 01:02:02;;;;;;;8.63;7.83;;;20.60;99.90;;;;;;5036288;28;20553;-46
2023/06/23 01:04:31;;;;;;;8.80;7.90;;;20.50;99.90;;;;;;5034268;28;20537;-45
2023/06/23 01:07:15;;;;;;;11.57;8.67;;;20.50;99.90;;;;;;5035863;28;20452;-45
2023/06/23 01:09:51;;;;;;;10.07;9.07;;;20.50;99.90;;;;;;5035214;28;20433;-44
2023/06/23 01:12:26;;;;;;;8.77;7.97;;;20.50;99.90;;;;;;5035365;28;20457;-45
2023/06/23 01:15:02;;;;;;;9.43;8.40;;;20.50;99.90;;;;;;5035780;28;20433;-45
2023/06/23 01:17:37;;;;;;;8.93;8.03;;;20.50;99.90;;;;;;5034561;28;20909;-44
2023/06/23 01:20:20;;;;;;;10.43;8.37;;;20.50;99.90;;;;;;5035519;28;20444;-45
2023/06/23 01:22:59;;;;;;;8.50;7.70;;;20.40;99.90;;;;;;5034641;28;20454;-44
2023/06/23 01:25:38;;;;;;;8.60;7.70;;;20.40;99.90;;;;;;5036197;28;20484;-46
2023/06/23 01:28:20;;;;;;;10.13;7.40;;;20.40;99.90;;;;;;5034277;28;20519;-46
2023/06/23 01:30:53;;;;;;;8.93;8.23;;;20.40;99.90;;;;;;5034733;28;20487;-46
2023/06/23 01:33:22;;;;;;;8.77;7.97;;;20.30;99.90;;;;;;5035671;28;20942;-46
2023/06/23 01:36:02;;;;;;;10.70;8.10;;;20.30;99.90;;;;;;5033818;28;20472;-47
2023/06/23 01:38:35;;;;;;;8.70;7.50;;;20.30;99.90;;;;;;5034926;28;20437;-47
2023/06/23 01:41:09;;;;;;;9.07;8.17;;;20.30;99.90;;;;;;5035136;28;20517;-46
2023/06/23 01:43:38;;;;;;;9.13;7.70;;;20.20;99.90;;;;;;5035574;28;20468;-46
2023/06/23 01:46:11;;;;;;;8.53;7.63;;;20.20;99.90;;;;;;5034871;28;20429;-47
2023/06/23 01:48:43;;;;;;;9.10;7.80;;;20.20;99.90;;;;;;5034529;28;20439;-46
2023/06/23 01:51:11;;;;;;;9.10;7.07;;;20.10;99.90;;;;;;5033500;28;21000;-47
2023/06/23 01:53:39;;;;;;;9.17;8.37;;;20.10;99.90;;;;;;5033347;28;20439;-46
2023/06/23 01:56:08;;;;;;;10.87;7.90;;;20.10;99.90;;;;;;5033653;28;20553;-47
2023/06/23 01:58:38;;;;;;;8.87;8.07;;;20.00;99.90;;;;;;5033088;28;20448;-47
2023/06/23 02:01:07;;;;;;;9.30;7.50;;;20.00;99.90;;;;;;5033351;28;20477;-46
2023/06/23 02:03:38;;;;;;;9.37;8.50;;;20.00;99.90;;;;;;5033628;28;20538;-47
2023/06/23 02:06:07;;;;;;;8.40;7.60;;;20.00;99.90;;;;;;5035033;28;20434;-47
2023/06/23 02:08:35;;;;;;;8.60;7.33;;;20.00;99.90;;;;;;5032920;28;20458;-48
2023/06/23 02:11:03;;;;;;;8.43;7.60;;;19.90;99.90;;;;;;5033117;28;20476;-46
2023/06/23 02:13:31;;;;;;;8.63;7.83;;;19.90;99.90;;;;;;5033092;28;20444;-46
2023/06/23 02:16:04;;;;;;;8.47;7.43;;;19.80;99.90;;;;;;5032959;28;20529;-47
2023/06/23 02:18:35;;;;;;;9.20;8.27;;;19.90;99.90;;;;;;5032951;28;20543;-46
2023/06/23 02:21:04;;;;;;;9.30;7.73;;;19.90;99.90;;;;;;5034507;28;20844;-47
2023/06/23 02:23:32;;;;;;;8.63;7.70;;;19.90;99.90;;;;;;5033196;28;20527;-47
2023/06/23 02:26:00;;;;;;;8.50;7.70;;;19.90;99.90;;;;;;5034164;28;20832;-47
2023/06/23 02:28:28;;;;;;;9.77;7.87;;;19.60;99.90;;;;;;5033907;28;20807;-46
2023/06/23 02:30:56;;;;;;;9.30;8.40;;;19.90;99.90;;;;;;5032602;28;20559;-45
2023/06/23 02:33:23;;;;;;;8.10;7.37;;;19.80;99.90;;;;;;5032873;28;20456;-46
2023/06/23 02:35:56;;;;;;;7.83;7.10;;;19.80;99.90;;;;;;5033063;28;20451;-46
2023/06/23 02:38:31;;;;;;;10.57;8.10;;;19.80;99.90;;;;;;5033885;28;20501;-47
2023/06/23 02:41:00;;;;;;;9.63;8.50;;;19.80;99.90;;;;;;5032781;28;20522;-46
2023/06/23 02:43:32;;;;;;;10.10;7.93;;;19.80;99.90;;;;;;5034241;28;20452;-46
2023/06/23 02:46:02;;;;;;;9.20;8.23;;;19.80;99.90;;;;;;5034439;28;20432;-46
2023/06/23 02:48:34;;;;;;;9.53;8.07;;;19.80;99.90;;;;;;5034018;28;20424;-45
2023/06/23 02:51:04;;;;;;;8.70;7.90;;;19.70;99.90;;;;;;5034032;28;20877;-45
2023/06/23 02:53:35;;;;;;;9.67;7.70;;;19.70;99.90;;;;;;5032801;28;20451;-45
2023/06/23 02:56:06;;;;;;;9.67;8.67;;;19.70;99.90;;;;;;5033543;28;20945;-46
2023/06/23 02:58:35;;;;;;;8.67;7.87;;;19.60;99.90;;;;;;5033419;28;20490;-46
2023/06/23 03:01:04;;;;;;;9.90;8.57;;;19.60;99.90;;;;;;5032147;28;20568;-46
2023/06/23 03:03:33;;;;;;;8.63;7.83;;;19.20;99.90;;;;;;5033376;28;20451;-46
2023/06/23 03:06:02;;;;;;;15.33;9.23;;;19.60;99.90;;;;;;5031471;28;20503;-47
2023/06/23 03:08:29;;;;;;;10.13;8.87;;;19.60;99.90;;;;;;5031641;28;20452;-47
2023/06/23 03:10:55;;;;;;;9.87;8.87;;;19.60;99.90;;;;;;5033087;28;20451;-46
2023/06/23 03:13:22;;;;;;;10.20;8.07;;;19.60;99.90;;;;;;5033210;28;20433;-48
2023/06/23 03:15:57;;;;;;;9.07;8.27;;;19.60;99.90;;;;;;5033229;28;20424;-47
2023/06/23 03:18:29;;;;;;;9.80;8.90;;;19.70;99.90;;;;;;5033086;28;20516;-48
2023/06/23 03:20:59;;;;;;;9.90;9.00;;;19.60;99.90;;;;;;5033330;28;20800;-46
2023/06/23 03:23:29;;;;;;;9.90;8.97;;;19.70;99.90;;;;;;5033025;28;20435;-46
2023/06/23 03:25:56;;;;;;;9.00;8.20;;;19.60;99.90;;;;;;5031615;28;20448;-46
2023/06/23 03:28:27;;;;;;;10.20;9.20;;;19.50;99.90;;;;;;5031216;28;20444;-45
2023/06/23 03:30:58;;;;;;;13.43;9.00;;;19.70;99.90;;;;;;5031582;28;20480;-47
2023/06/23 03:33:28;;;;;;;10.07;9.07;;;19.60;99.90;;;;;;5032742;28;20467;-45
2023/06/23 03:35:59;;;;;;;9.57;8.43;;;19.40;99.90;;;;;;5034097;28;20430;-48
2023/06/23 03:38:31;;;;;;;9.10;8.20;;;19.50;99.90;;;;;;5032443;28;20475;-46
2023/06/23 03:41:03;;;;;;;10.00;8.63;;;19.70;99.90;;;;;;5032757;28;20834;-47
2023/06/23 03:43:35;;;;;;;9.00;8.20;;;19.80;99.90;;;;;;5032515;28;20414;-47
2023/06/23 03:46:06;;;;;;;9.73;8.83;;;19.80;99.90;;;;;;5032351;28;20440;-47
2023/06/23 03:48:37;;;;;;;8.43;7.63;;;19.90;99.90;;;;;;5030708;28;20445;-46
2023/06/23 03:51:05;;;;;;;11.30;8.93;;;20.00;99.90;;;;;;5032540;28;20460;-46
2023/06/23 03:53:34;;;;;;;9.90;8.90;;;20.00;99.90;;;;;;5032435;28;20432;-48
2023/06/23 03:56:02;;;;;;;11.93;9.07;;;19.50;99.90;;;;;;5032934;28;20440;-46
2023/06/23 03:58:31;;;;;;;9.07;8.23;;;20.00;99.90;;;;;;5031821;28;20833;-46
2023/06/23 04:00:59;;;;;;;8.80;7.77;;;20.00;99.90;;;;;;5032615;28;20848;-46
2023/06/23 04:03:27;;;;;;;9.87;8.87;;;20.00;99.90;;;;;;5032505;28;20444;-46
2023/06/23 04:05:56;;;;;;;9.10;8.20;;;20.00;99.90;;;;;;5032131;28;20873;-46
2023/06/23 04:08:24;;;;;;;9.43;8.53;;;19.90;99.90;;;;;;5031791;28;20803;-47
2023/06/23 04:10:55;;;;;;;11.73;9.97;;;20.30;99.90;;;;;;5032621;28;20799;-46
2023/06/23 04:13:22;;;;;;;11.30;9.67;;;20.00;99.90;;;;;;5032465;28;20795;-46
2023/06/23 04:15:51;;;;;;;12.37;9.80;;;20.10;99.90;;;;;;5032106;28;20956;-46
2023/06/23 04:18:19;;;;;;;11.03;9.97;;;20.00;99.90;;;;;;5031592;28;20484;-47
2023/06/23 04:20:47;;;;;;;10.50;9.43;;;19.80;99.90;;;;;;5032101;28;20979;-47
2023/06/23 04:23:14;;;;;;;10.47;9.43;;;19.90;99.90;;;;;;5031900;28;20435;-47
2023/06/23 04:25:44;;;;;;;12.00;10.80;;;19.90;99.90;;;;;;5031973;28;20439;-47
2023/06/23 04:28:15;;;;;;;11.50;8.90;;;19.60;99.90;;;;;;5031548;28;20465;-46
2023/06/23 04:30:43;;;;;;;11.97;10.33;;;19.90;99.90;;;;;;5031784;28;20468;-47
2023/06/23 04:33:10;;;;;;;12.13;9.30;;;19.90;99.90;;;;;;5031860;28;20431;-48
2023/06/23 04:35:38;;;;;;;14.07;11.03;;;19.60;99.90;;;;;;5031889;28;20435;-46
2023/06/23 04:38:09;;;;;;;13.30;11.20;;;19.90;99.90;;;;;;5031701;28;20476;-47
2023/06/23 04:40:40;;;;;;;12.00;9.87;;;19.90;99.90;;;;;;5031626;28;20991;-45
2023/06/23 04:43:12;;;;;;;10.30;9.30;;;19.80;99.90;;;;;;5031856;28;20806;-46
2023/06/23 04:45:45;;;;;;;13.37;9.60;;;19.70;99.90;;;;;;5032012;28;20439;-46
2023/06/23 04:48:13;;;;;;;13.90;10.27;;;19.90;99.90;;;;;;5031644;28;20519;-46
2023/06/23 04:50:42;;;;;;;11.03;10.03;;;19.80;99.90;;;;;;5034269;28;20456;-46
2023/06/23 04:53:17;;;;;;;10.83;9.73;;;19.90;99.90;;;;;;5032319;28;20435;-45
2023/06/23 04:55:48;;;;;;;17.33;11.03;;;19.90;99.90;;;;;;5031774;28;20436;-47
2023/06/23 04:58:17;;;;;;;11.83;10.63;;;19.90;99.90;;;;;;5031920;28;20839;-48
2023/06/23 05:00:46;;;;;;;11.63;8.73;;;19.90;99.90;;;;;;5032096;28;20962;-45
2023/06/23 05:03:14;;;;;;;11.13;9.60;;;19.90;99.90;;;;;;5031890;28;20444;-47
2023/06/23 05:05:43;;;;;;;10.93;9.50;;;19.90;99.90;;;;;;5032047;28;20954;-46
2023/06/23 05:08:11;;;;;;;13.87;10.00;;;19.70;99.90;;;;;;5031260;28;20925;-46
2023/06/23 05:10:40;;;;;;;12.30;10.20;;;19.90;99.90;;;;;;5031732;28;20456;-47
2023/06/23 05:13:08;;;;;;;11.07;10.00;;;19.90;99.90;;;;;;5031834;28;20443;-47
2023/06/23 05:15:35;;;;;;;11.43;10.33;;;19.80;99.90;;;;;;5031965;28;20926;-45
2023/06/23 05:18:05;;;;;;;11.10;10.00;;;19.90;99.90;;;;;;5031598;28;20483;-47
2023/06/23 05:20:33;;;;;;;11.27;10.17;;;19.90;99.90;;;;;;5031393;28;20458;-47
2023/06/23 05:23:02;;;;;;;13.60;10.70;;;19.90;99.90;;;;;;5031376;28;20503;-48
2023/06/23 05:25:32;;;;;;;12.70;11.50;;;19.90;99.90;;;;;;5031523;28;20485;-45
2023/06/23 05:28:01;;;;;;;12.53;9.67;;;20.00;99.90;;;;;;5031330;28;20449;-47
2023/06/23 05:30:29;;;;;;;11.70;10.53;;;20.00;99.90;;;;;;5034213;28;20480;-46
2023/06/23 05:32:58;;;;;;;10.80;9.80;;;20.00;99.90;;;;;;5035315;28;20531;-46
2023/06/23 05:35:28;;;;;;;11.77;10.50;;;20.00;99.90;;;;;;5034749;28;20429;-47
2023/06/23 05:37:56;;;;;;;11.47;10.20;;;20.20;99.90;;;;;;5034556;28;20475;-47
2023/06/23 05:40:23;;;;;;;11.57;10.57;;;20.00;99.90;;;;;;5034160;28;20458;-47
2023/06/23 05:42:50;;;;;;;11.37;10.37;;;20.00;99.90;;;;;;5034729;28;20466;-47
2023/06/23 05:45:17;;;;;;;12.13;10.93;;;19.50;99.90;;;;;;5034459;28;20453;-47
2023/06/23 05:47:52;;;;;;;11.43;10.23;;;19.90;99.90;;;;;;5034210;28;20460;-47
2023/06/23 05:50:28;;;;;;;12.23;10.27;;;19.90;99.90;;;;;;5034002;28;20519;-48
2023/06/23 05:53:02;;;;;;;11.47;10.37;;;19.90;99.90;;;;;;5034410;28;20444;-47
2023/06/23 05:55:30;;;;;;;13.10;10.93;;;20.00;99.90;;;;;;5034642;28;20517;-46
2023/06/23 05:58:01;;;;;;;12.27;11.07;;;19.90;99.90;;;;;;5034552;28;20487;-46
2023/06/23 06:00:32;;;;;;;11.17;10.07;;;19.90;99.90;;;;;;5033913;28;20546;-46
2023/06/23 06:03:02;;;;;;;13.90;10.43;;;19.90;99.90;;;;;;5034384;28;20933;-48
2023/06/23 06:05:29;;;;;;;12.20;11.10;;;19.90;99.90;;;;;;5034280;28;21003;-47
2023/06/23 06:07:58;;;;;;;12.53;11.43;;;19.90;99.90;;;;;;5034294;28;20854;-48
2023/06/23 06:10:27;;;;;;;12.57;11.47;;;19.70;99.90;;;;;;5033877;28;20484;-46
2023/06/23 06:12:56;;;;;;;11.80;10.73;;;19.90;99.90;;;;;;5033964;28;20804;-46
2023/06/23 06:15:23;;;;;;;12.50;10.37;;;19.90;99.90;;;;;;5033492;28;20818;-47
2023/06/23 06:17:51;;;;;;;12.13;10.93;;;19.90;99.90;;;;;;5034219;28;21064;-46
2023/06/23 06:20:20;;;;;;;13.10;11.90;;;19.50;99.90;;;;;;5033517;28;20802;-46
2023/06/23 06:22:50;;;;;;;12.33;11.13;;;19.90;99.90;;;;;;5033911;28;20436;-46
2023/06/23 06:25:18;;;;;;;12.07;10.87;;;19.80;99.90;;;;;;5033768;28;20936;-47
2023/06/23 06:27:46;;;;;;;11.30;10.30;;;19.90;99.90;;;;;;5033773;28;20432;-47
2023/06/23 06:30:15;;;;;;;11.93;10.83;;;20.00;99.90;;;;;;5031960;28;20448;-47
2023/06/23 06:32:42;;;;;;;12.17;10.67;;;20.00;99.90;;;;;;5032452;28;20497;-47
2023/06/23 06:35:11;;;;;;;12.57;11.57;;;20.00;99.90;;;;;;5033566;28;21012;-47
2023/06/23 06:37:41;;;;;;;11.07;10.17;;;19.90;99.90;;;;;;5032064;28;20466;-46
2023/06/23 06:40:11;;;;;;;14.30;11.90;;;20.00;99.90;;;;;;5032031;28;20432;-48
2023/06/23 06:42:39;;;;;;;11.43;10.43;;;19.90;99.90;;;;;;5033523;28;20441;-47
2023/06/23 06:45:06;;;;;;;12.87;11.53;;;19.90;99.90;;;;;;5033184;28;20443;-47
2023/06/23 06:47:40;;;;;;;13.07;11.87;;;20.00;99.90;;;;;;5033639;28;20525;-47
2023/06/23 06:50:09;;;;;;;11.30;10.20;;;20.10;99.90;;;;;;5031880;28;20459;-47
2023/06/23 06:52:37;;;;;;;13.23;11.93;;;20.20;99.90;;;;;;5033396;28;20436;-47
2023/06/23 06:55:05;;;;;;;14.43;11.93;;;20.30;99.90;;;;;;5033553;28;21056;-47
2023/06/23 06:57:32;;;;;;;12.43;11.23;;;20.40;99.90;;;;;;5033000;28;20468;-46
2023/06/23 06:59:59;;;;;;;13.30;12.10;;;20.40;99.90;;;;;;5032742;28;20523;-47
2023/06/23 07:02:28;;;;;;;12.90;11.70;;;20.50;99.90;;;;;;5033179;28;20448;-46
2023/06/23 07:04:55;;;;;;;18.10;16.50;;;20.40;99.90;;;;;;5034560;28;20444;-46
2023/06/23 07:07:22;;;;;;;13.90;12.70;;;20.40;99.90;;;;;;5032659;28;21043;-46
2023/06/23 07:09:48;;;;;;;12.53;11.23;;;20.40;99.90;;;;;;5033047;28;20441;-48
2023/06/23 07:12:15;;;;;;;12.20;10.90;;;20.20;99.90;;;;;;5032994;28;20488;-46
2023/06/23 07:14:41;;;;;;;12.20;11.10;;;20.40;99.90;;;;;;5033167;28;20947;-46
2023/06/23 07:17:09;;;;;;;13.17;11.87;;;20.40;99.90;;;;;;5032985;28;20437;-47
2023/06/23 07:19:37;;;;;;;11.13;10.03;;;20.50;99.90;;;;;;5032774;28;20986;-48
2023/06/23 07:22:05;;;;;;;13.77;11.20;;;20.50;99.90;;;;;;5034126;28;20456;-46
2023/06/23 07:24:31;;;;;;;12.00;10.80;;;20.60;99.90;;;;;;5031118;28;20480;-46
2023/06/23 07:26:58;;;;;;;13.40;12.10;;;20.70;99.90;;;;;;5032835;28;20449;-46
2023/06/23 07:29:24;;;;;;;12.70;11.43;;;20.70;99.90;;;;;;5032151;28;20446;-47
2023/06/23 07:31:52;;;;;;;12.27;11.17;;;20.70;99.90;;;;;;5080629;22;20510;-48
2023/06/23 07:34:20;;;;;;;11.70;10.67;;;21.00;99.90;;;;;;5072105;28;20469;-48
2023/06/23 07:36:46;;;;;;;11.80;10.80;;;20.70;99.90;;;;;;5071910;28;20439;-48
2023/06/23 07:39:13;;;;;;;11.33;10.33;;;20.60;99.90;;;;;;5071494;28;20471;-48
2023/06/23 07:41:40;;;;;;;13.10;12.00;;;20.50;99.90;;;;;;5072005;28;20448;-48
2023/06/23 07:44:06;;;;;;;12.63;11.40;;;20.50;99.90;;;;;;5071731;28;20446;-48
2023/06/23 07:46:34;;;;;;;12.87;11.63;;;20.50;99.90;;;;;;5072107;28;20443;-48
2023/06/23 07:49:00;;;;;;;12.27;10.97;;;20.50;99.90;;;;;;5071776;28;20782;-48
2023/06/23 07:51:28;;;;;;;12.43;11.33;;;20.50;99.90;;;;;;5071189;28;20970;-48
2023/06/23 07:53:55;;;;;;;13.70;10.97;;;20.50;99.90;;;;;;5071570;28;20435;-48
2023/06/23 07:56:22;;;;;;;12.90;11.60;;;20.50;99.90;;;;;;5071460;28;20424;-48
2023/06/23 07:58:48;;;;;;;13.87;12.47;;;20.50;99.90;;;;;;5071327;28;20903;-47
2023/06/23 08:01:15;;;;;;;12.13;11.03;;;20.40;99.90;;;;;;5071714;28;20958;-48
2023/06/23 08:03:45;;;;;;;12.33;11.23;;;20.40;99.90;;;;;;5071599;28;20439;-48
2023/06/23 08:06:12;;;;;;;12.87;11.57;;;20.40;99.90;;;;;;5071586;28;20481;-48
2023/06/23 08:08:40;;;;;;;14.67;11.60;;;20.30;99.90;;;;;;5053045;28;20932;-48
2023/06/23 08:11:07;;;;;;;12.00;10.87;;;20.40;99.90;;;;;;5071542;28;21078;-47
2023/06/23 08:13:33;;;;;;;12.90;11.70;;;20.30;99.90;;;;;;5071898;28;20451;-48
2023/06/23 08:16:00;;;;;;;12.73;11.63;;;20.30;99.90;;;;;;5071824;28;20436;-48
2023/06/23 08:18:26;;;;;;;13.33;12.17;;;20.20;99.90;;;;;;5071509;28;20938;-47
2023/06/23 08:20:54;;;;;;;12.63;11.37;;;20.20;99.90;;;;;;5071377;28;20446;-48
2023/06/23 08:23:21;;;;;;;12.93;11.83;;;20.20;99.90;;;;;;5071362;28;20477;-48
2023/06/23 08:25:49;;;;;;;13.40;12.20;;;20.20;99.90;;;;;;5071348;28;20956;-49
2023/06/23 08:28:16;;;;;;;13.40;12.20;;;20.20;99.90;;;;;;5071016;28;20487;-48
2023/06/23 08:30:42;;;;;;;12.63;11.50;;;20.20;99.90;;;;;;5071092;28;20460;-48
2023/06/23 08:33:09;;;;;;;12.40;11.37;;;20.20;99.90;;;;;;5071222;28;20436;-48
2023/06/23 08:35:36;;;;;;;14.53;12.27;;;20.20;99.90;;;;;;5071152;28;20435;-47
2023/06/23 08:38:02;;;;;;;22.57;20.37;;;20.20;99.90;;;;;;5070693;28;20483;-48
2023/06/23 08:40:29;;;;;;;46.80;42.77;;;20.30;99.90;;;;;;5052992;28;20802;-48
2023/06/23 08:42:58;;;;;;;14.50;13.30;;;20.40;99.90;;;;;;5070505;28;20446;-48
2023/06/23 08:45:25;;;;;;;13.63;12.33;;;20.50;99.90;;;;;;5053126;28;20447;-48
2023/06/23 08:47:59;;;;;;;17.33;11.90;;;20.60;99.90;;;;;;5071059;28;20483;-48
2023/06/23 08:50:26;;;;;;;13.30;11.83;;;20.60;99.90;;;;;;5052607;28;20444;-48
2023/06/23 08:52:52;;;;;;;12.17;11.07;;;20.70;99.90;;;;;;5070680;28;20455;-47
2023/06/23 08:55:19;;;;;;;12.57;11.47;;;20.70;99.90;;;;;;5070529;28;20437;-49
2023/06/23 08:57:47;;;;;;;12.37;11.17;;;20.80;99.90;;;;;;5070956;28;20950;-48
2023/06/23 09:00:16;;;;;;;11.73;10.53;;;21.30;99.90;;;;;;5070276;28;20447;-49
2023/06/23 09:02:42;;;;;;;12.67;11.57;;;20.80;99.90;;;;;;5070245;28;20462;-48
2023/06/23 09:05:09;;;;;;;13.70;12.50;;;20.80;99.90;;;;;;5073986;28;20435;-47
2023/06/23 09:07:36;;;;;;;14.53;13.33;;;20.40;99.90;;;;;;5074812;28;20432;-48
2023/06/23 09:10:03;;;;;;;16.10;14.70;;;20.60;99.90;;;;;;5074714;28;20436;-49
2023/06/23 09:12:29;;;;;;;16.97;15.57;;;20.60;99.90;;;;;;5074996;28;20454;-47
2023/06/23 09:14:59;;;;;;;18.20;16.60;;;20.50;99.90;;;;;;5075264;28;20472;-48
2023/06/23 09:17:27;;;;;;;17.40;16.00;;;20.50;99.90;;;;;;5056887;28;20451;-52
2023/06/23 09:19:55;;;;;;;18.43;16.93;;;20.40;99.90;;;;;;5074113;28;20572;-47
2023/06/23 09:22:22;;;;;;;18.93;17.40;;;20.30;99.90;;;;;;5074464;28;20450;-47
2023/06/23 09:24:49;;;;;;;20.60;18.80;;;20.30;99.90;;;;;;5074297;28;20439;-46
2023/06/23 09:27:16;;;;;;;21.37;19.67;;;20.20;99.90;;;;;;5074356;28;20427;-48
2023/06/23 09:29:43;;;;;;;22.00;20.20;;;20.20;99.90;;;;;;5074180;28;20437;-48
2023/06/23 09:32:09;;;;;;;25.03;22.93;;;20.40;99.90;;;;;;5074557;28;20566;-48
2023/06/23 09:34:39;;;;;;;22.80;20.87;;;20.20;99.90;;;;;;5074073;28;20501;-49
2023/06/23 09:37:07;;;;;;;24.13;22.23;;;20.20;99.90;;;;;;5074225;28;20460;-48
2023/06/23 09:39:35;;;;;;;25.00;22.90;;;20.10;99.90;;;;;;5073941;28;20597;-47
2023/06/23 09:42:06;;;;;;;25.37;23.37;;;20.10;99.90;;;;;;5074258;28;20446;-49
2023/06/23 09:44:34;;;;;;;26.13;23.80;;;20.20;99.90;;;;;;5074200;28;20517;-47
2023/06/23 09:47:01;;;;;;;28.27;25.87;;;20.20;99.90;;;;;;5074123;28;20432;-48
2023/06/23 09:49:28;;;;;;;29.80;27.20;;;20.30;99.90;;;;;;5073399;28;20432;-48
2023/06/23 09:51:56;;;;;;;27.77;25.23;;;20.30;99.90;;;;;;5073803;28;20469;-47
2023/06/23 09:54:34;;;;;;;38.67;35.27;;;20.10;99.90;;;;;;5073496;28;20436;-49
2023/06/23 09:57:07;;;;;;;28.77;26.30;;;20.40;99.90;;;;;;5074084;28;20513;-48
2023/06/23 09:59:34;;;;;;;30.73;27.93;;;20.40;99.90;;;;;;5073492;28;20487;-48
2023/06/23 10:02:00;;;;;;;28.40;26.00;;;20.30;99.90;;;;;;5073501;28;21006;-49
2023/06/23 10:04:30;;;;;;;28.70;26.20;;;20.30;99.90;;;;;;5073410;28;20791;-48
2023/06/23 10:06:59;;;;;;;27.00;24.50;;;20.30;99.90;;;;;;5073746;28;20469;-48
2023/06/23 10:09:26;;;;;;;28.90;26.30;;;20.20;99.90;;;;;;5073325;28;20432;-48
2023/06/23 10:11:53;;;;;;;26.30;24.07;;;20.20;99.90;;;;;;5073823;28;20462;-47
2023/06/23 10:14:20;;;;;;;26.00;23.77;;;20.20;99.90;;;;;;5073392;28;20534;-48
2023/06/23 10:16:49;;;;;;;26.03;23.80;;;20.20;99.90;;;;;;5073609;28;20495;-47
2023/06/23 10:19:16;;;;;;;26.77;24.37;;;20.20;99.90;;;;;;5073185;28;20449;-48
2023/06/23 10:21:44;;;;;;;23.47;21.40;;;20.20;99.90;;;;;;5070719;28;20454;-48
2023/06/23 10:24:18;;;;;;;23.50;21.50;;;20.20;99.90;;;;;;5062211;28;20466;-47
2023/06/23 10:26:46;;;;;;;24.00;21.87;;;20.20;99.90;;;;;;5069127;28;20444;-48
2023/06/23 10:29:14;;;;;;;21.77;20.07;;;20.20;99.90;;;;;;5069616;28;20447;-48
2023/06/23 10:31:42;;;;;;;23.33;21.43;;;20.30;99.90;;;;;;5034371;28;20815;-47
2023/06/23 10:34:12;;;;;;;21.47;19.67;;;20.30;99.90;;;;;;5052521;28;20924;-48
2023/06/23 10:36:40;;;;;;;20.83;19.07;;;20.20;99.90;;;;;;5055654;28;20574;-49
2023/06/23 10:39:10;;;;;;;21.40;19.60;;;19.90;99.90;;;;;;5056607;28;20480;-48
2023/06/23 10:41:40;;;;;;;19.83;18.30;;;20.50;99.90;;;;;;5053300;28;20517;-47
2023/06/23 10:44:09;;;;;;;21.47;19.30;;;20.10;99.90;;;;;;5052923;28;20760;-47
2023/06/23 10:46:36;;;;;;;19.13;17.30;;;20.50;99.90;;;;;;5052570;28;20920;-49
2023/06/23 10:49:04;;;;;;;16.47;15.10;;;20.70;99.90;;;;;;5059574;28;20629;-48
2023/06/23 10:51:32;;;;;;;12.37;11.20;;;20.60;99.90;;;;;;5072484;28;20463;-49
2023/06/23 10:54:01;;;;;;;12.93;11.73;;;20.60;99.90;;;;;;5072037;28;20447;-48
2023/06/23 10:56:32;;;;;;;11.87;10.73;;;20.50;99.90;;;;;;5063422;28;20548;-48
2023/06/23 10:59:00;;;;;;;11.77;10.57;;;20.60;99.90;;;;;;5071932;28;20510;-49
2023/06/23 11:01:28;;;;;;;11.70;10.60;;;20.50;99.90;;;;;;5051093;28;20895;-47
2023/06/23 11:03:58;;;;;;;12.20;11.00;;;20.40;99.90;;;;;;5042674;28;20515;-48
2023/06/23 11:06:34;;;;;;;10.80;9.80;;;20.40;99.90;;;;;;5072014;28;20533;-47
2023/06/23 11:09:02;;;;;;;12.03;10.90;;;20.40;99.90;;;;;;5071474;28;20449;-48
2023/06/23 11:11:33;;;;;;;11.73;10.53;;;20.50;99.90;;;;;;5071748;28;20453;-48
2023/06/23 11:14:01;;;;;;;10.83;9.93;;;20.40;99.90;;;;;;5071400;28;20469;-48
2023/06/23 11:16:30;;;;;;;9.53;8.70;;;20.40;99.90;;;;;;5053679;28;20442;-48
2023/06/23 11:18:58;;;;;;;9.43;8.63;;;20.30;99.90;;;;;;5071126;28;20474;-48
2023/06/23 11:21:33;;;;;;;11.47;10.30;;;20.70;99.90;;;;;;5071734;28;20462;-48
2023/06/23 11:24:11;;;;;;;10.70;9.60;;;20.40;99.90;;;;;;5069342;28;20473;-48
2023/06/23 11:26:38;;;;;;;9.73;8.83;;;20.40;99.90;;;;;;5069226;28;20430;-47
2023/06/23 11:29:12;;;;;;;10.80;9.80;;;20.10;99.90;;;;;;5066848;28;20480;-48
2023/06/23 11:32:05;;;;;;;12.30;11.07;;;20.30;99.90;;;;;;5071307;28;20473;-49
2023/06/23 11:34:52;;;;;;;12.63;11.43;;;20.40;99.90;;;;;;5072699;28;20441;-47
2023/06/23 11:37:19;;;;;;;12.50;11.40;;;19.70;99.90;;;;;;5071516;28;20434;-47
2023/06/23 11:39:45;;;;;;;14.57;12.03;;;20.40;99.90;;;;;;5071234;28;20485;-48
2023/06/23 11:42:12;;;;;;;11.83;10.50;;;20.30;99.90;;;;;;5071294;28;20456;-47
2023/06/23 11:44:40;;;;;;;13.90;12.60;;;20.10;99.90;;;;;;5071413;28;20498;-48
2023/06/23 11:47:07;;;;;;;13.80;12.60;;;20.40;99.90;;;;;;5053360;28;20997;-48
2023/06/23 11:49:36;;;;;;;14.00;12.67;;;20.30;99.90;;;;;;5070767;28;20443;-47
2023/06/23 11:52:03;;;;;;;14.30;13.00;;;20.40;99.90;;;;;;5071204;28;20507;-48
2023/06/23 11:54:32;;;;;;;16.10;14.40;;;20.30;99.90;;;;;;5053129;28;20437;-50
2023/06/23 11:56:59;;;;;;;16.33;14.83;;;20.40;99.90;;;;;;5071050;28;20455;-49
2023/06/23 11:59:26;;;;;;;15.37;13.87;;;20.30;99.90;;;;;;5070667;28;20479;-48
2023/06/23 12:01:54;;;;;;;17.30;15.67;;;20.30;99.90;;;;;;5070966;28;20443;-48
2023/06/23 12:04:22;;;;;;;16.07;14.57;;;20.20;99.90;;;;;;5071442;28;20522;-50
2023/06/23 12:06:51;;;;;;;16.33;14.83;;;20.10;99.90;;;;;;5053324;28;20443;-49
2023/06/23 12:09:20;;;;;;;18.73;17.00;;;20.10;99.90;;;;;;5071181;28;20457;-49
2023/06/23 12:11:47;;;;;;;18.30;16.47;;;20.10;99.90;;;;;;5071154;28;20527;-48
2023/06/23 12:14:14;;;;;;;19.80;18.07;;;20.00;99.90;;;;;;5071106;28;20927;-48
2023/06/23 12:16:41;;;;;;;19.60;17.90;;;20.00;99.90;;;;;;5052898;28;20443;-49
2023/06/23 12:19:09;;;;;;;20.47;18.57;;;20.00;99.90;;;;;;5070081;28;20796;-48
2023/06/23 12:21:39;;;;;;;18.23;16.17;;;19.90;99.90;;;;;;5052803;28;20458;-49
2023/06/23 12:24:08;;;;;;;15.00;13.60;;;19.90;99.90;;;;;;5071084;28;20865;-49
2023/06/23 12:26:35;;;;;;;15.70;14.30;;;19.90;99.90;;;;;;5070834;28;20521;-48
2023/06/23 12:29:09;;;;;;;13.87;12.20;;;19.80;99.90;;;;;;5070324;28;20437;-49
2023/06/23 12:31:37;;;;;;;13.90;12.17;;;19.80;99.90;;;;;;5070389;28;20475;-49
2023/06/23 12:34:04;;;;;;;12.63;11.10;;;19.60;99.90;;;;;;5071187;28;20492;-49
2023/06/23 12:36:32;;;;;;;12.13;10.27;;;19.60;99.90;;;;;;5071253;28;20796;-49
2023/06/23 12:39:01;;;;;;;12.20;11.10;;;19.60;99.90;;;;;;5073419;28;20434;-49
2023/06/23 12:41:29;;;;;;;10.93;9.73;;;19.40;99.90;;;;;;5074894;28;20536;-49